Time;durP1;ratioP1;P1;durP2;ratioP2;P2;SDS_P1;SDS_P2;PMS_P1;PMS_P2;Temp;Humidity;BMP_temperature;BMP_pressure;BME280_temperature;BME280_humidity;BME280_pressure;Samples;Min_cycle;Max_cycle;Signal;HPM_P1;HPM_P2
2021/12/21 00:00:16;;;;;;;24.42;12.35;;;-1.60;99.90;;;;;;5071854;28;20066;-46
2021/12/21 00:02:45;;;;;;;24.25;13.02;;;-1.50;99.90;;;;;;5080135;28;20421;-47
2021/12/21 00:05:17;;;;;;;28.23;12.85;;;-1.60;99.90;;;;;;5091581;28;20489;-45
2021/12/21 00:07:43;;;;;;;24.35;12.68;;;-1.60;99.90;;;;;;5081942;28;20028;-48
2021/12/21 00:10:11;;;;;;;20.73;11.07;;;-1.60;99.90;;;;;;5072063;28;20012;-46
2021/12/21 00:12:38;;;;;;;29.75;14.23;;;-1.60;99.90;;;;;;5077419;28;20073;-46
2021/12/21 00:15:17;;;;;;;25.10;11.75;;;-1.60;99.90;;;;;;5083609;28;20112;-46
2021/12/21 00:17:53;;;;;;;28.17;13.15;;;-1.60;99.90;;;;;;5083759;28;20046;-46
2021/12/21 00:25:21;;;;;;;24.42;12.65;;;-1.60;99.90;;;;;;5071736;28;20508;-46
2021/12/21 00:27:51;;;;;;;27.65;14.18;;;-1.60;99.90;;;;;;5070519;28;20469;-49
2021/12/21 00:30:17;;;;;;;29.15;13.40;;;-1.60;99.90;;;;;;5071602;28;20453;-46
2021/12/21 00:32:43;;;;;;;24.95;12.77;;;-1.60;99.90;;;;;;5071105;28;20499;-46
2021/12/21 00:35:09;;;;;;;23.20;13.43;;;-1.70;99.90;;;;;;5097634;28;20027;-46
2021/12/21 00:37:36;;;;;;;23.48;12.80;;;-1.60;99.90;;;;;;5088130;28;20039;-45
2021/12/21 00:40:04;;;;;;;23.35;12.13;;;-1.60;99.90;;;;;;5079322;28;20036;-47
2021/12/21 00:42:29;;;;;;;27.13;12.88;;;-1.60;99.90;;;;;;5094988;28;20025;-47
2021/12/21 00:44:55;;;;;;;23.20;11.40;;;-1.60;99.90;;;;;;5078379;28;20013;-46
2021/12/21 00:47:20;;;;;;;24.08;11.95;;;-1.50;99.90;;;;;;5090766;28;20050;-46
2021/12/21 00:49:47;;;;;;;23.25;11.50;;;-1.50;99.90;;;;;;5082676;28;20045;-45
2021/12/21 00:52:14;;;;;;;26.88;12.63;;;-1.50;99.90;;;;;;5080956;28;20016;-45
2021/12/21 00:54:40;;;;;;;22.88;12.18;;;-1.50;99.90;;;;;;5082631;28;20042;-45
2021/12/21 00:57:06;;;;;;;23.30;12.93;;;-1.50;99.90;;;;;;5091354;28;20095;-46
2021/12/21 00:59:32;;;;;;;29.10;13.80;;;-1.50;99.90;;;;;;5077555;28;20020;-46
2021/12/21 01:01:59;;;;;;;24.13;13.10;;;-1.50;99.90;;;;;;5080691;28;20142;-45
2021/12/21 01:04:31;;;;;;;24.40;12.32;;;-1.40;99.90;;;;;;5085441;28;20107;-45
2021/12/21 01:07:02;;;;;;;23.63;12.65;;;-1.50;99.90;;;;;;5080607;28;20051;-48
2021/12/21 01:09:56;;;;;;;28.75;14.18;;;-1.50;99.90;;;;;;5069628;28;20085;-47
2021/12/21 01:12:23;;;;;;;21.02;13.25;;;-1.50;99.90;;;;;;5078511;28;20086;-45
2021/12/21 01:15:10;;;;;;;27.45;13.82;;;-1.50;99.90;;;;;;5070705;28;20066;-45
2021/12/21 01:17:50;;;;;;;26.95;14.25;;;-1.50;99.90;;;;;;5075551;28;20524;-46
2021/12/21 01:20:37;;;;;;;24.17;12.40;;;-1.50;99.90;;;;;;5082289;28;20397;-45
2021/12/21 01:23:45;;;;;;;22.23;11.80;;;-1.60;99.90;;;;;;5074843;28;20028;-46
2021/12/21 01:28:59;;;;;;;27.83;13.05;;;-1.60;99.90;;;;;;5080886;28;20033;-46
2021/12/21 01:31:34;;;;;;;25.20;12.75;;;-1.60;99.90;;;;;;5071402;28;20023;-45
2021/12/21 01:34:15;;;;;;;26.00;13.63;;;-1.60;99.90;;;;;;5069850;28;20048;-46
2021/12/21 01:36:58;;;;;;;29.58;14.70;;;-1.60;99.90;;;;;;5078389;28;20015;-47
2021/12/21 01:42:01;;;;;;;24.35;12.45;;;-1.70;99.90;;;;;;5050561;28;20059;-45
2021/12/21 01:49:49;;;;;;;31.80;14.23;;;-1.70;99.90;;;;;;5089051;28;20058;-48
2021/12/21 01:52:19;;;;;;;26.67;13.65;;;-1.70;99.90;;;;;;5078841;28;20119;-46
2021/12/21 01:54:45;;;;;;;28.00;15.13;;;-1.80;99.90;;;;;;5090195;28;20020;-46
2021/12/21 01:57:12;;;;;;;27.55;14.93;;;-1.70;99.90;;;;;;5084783;28;20028;-45
2021/12/21 01:59:38;;;;;;;30.42;16.23;;;-1.70;99.90;;;;;;5083298;28;20578;-46
2021/12/21 02:02:08;;;;;;;30.90;13.73;;;-1.70;99.90;;;;;;5090069;28;20019;-46
2021/12/21 02:04:34;;;;;;;29.17;14.68;;;-1.70;99.90;;;;;;5079700;28;20048;-46
2021/12/21 02:06:59;;;;;;;31.50;14.98;;;-1.80;99.90;;;;;;5087516;28;20024;-45
2021/12/21 02:09:33;;;;;;;32.15;13.65;;;-1.80;99.90;;;;;;5089338;28;20061;-45
2021/12/21 02:11:58;;;;;;;22.58;13.77;;;-1.80;99.90;;;;;;5082662;28;20025;-45
2021/12/21 02:14:24;;;;;;;29.52;14.30;;;-1.80;99.90;;;;;;5077759;28;20103;-46
2021/12/21 02:17:26;;;;;;;29.40;14.60;;;-1.80;99.90;;;;;;5077262;28;20385;-46
2021/12/21 02:20:06;;;;;;;22.98;12.98;;;-1.80;99.90;;;;;;5066410;28;20440;-45
2021/12/21 02:22:35;;;;;;;31.77;13.15;;;-1.80;99.90;;;;;;5073367;28;20043;-46
2021/12/21 02:25:30;;;;;;;26.77;16.20;;;-1.80;99.90;;;;;;5078916;28;20452;-45
2021/12/21 02:27:57;;;;;;;32.53;14.18;;;-1.90;99.90;;;;;;5082322;28;20119;-48
2021/12/21 02:30:23;;;;;;;28.10;13.98;;;-1.90;99.90;;;;;;5070543;28;20047;-45
2021/12/21 02:32:50;;;;;;;31.10;14.45;;;-2.00;99.90;;;;;;5068718;28;20043;-47
2021/12/21 02:35:16;;;;;;;31.48;15.57;;;-2.00;99.90;;;;;;5078971;28;20027;-45
2021/12/21 02:37:41;;;;;;;29.05;14.95;;;-2.00;99.90;;;;;;5084262;28;20032;-45
2021/12/21 02:40:08;;;;;;;31.80;15.35;;;-2.10;99.90;;;;;;5087133;28;20160;-46
2021/12/21 02:42:33;;;;;;;28.80;15.05;;;-2.10;99.90;;;;;;5079665;28;20469;-46
2021/12/21 02:44:59;;;;;;;27.02;14.73;;;-2.00;99.90;;;;;;5089788;28;20028;-46
2021/12/21 02:47:25;;;;;;;31.30;16.30;;;-2.00;99.90;;;;;;5088628;28;20549;-49
2021/12/21 02:49:50;;;;;;;32.85;15.70;;;-2.00;99.90;;;;;;5079980;28;20017;-45
2021/12/21 02:52:16;;;;;;;29.25;16.23;;;-2.00;99.90;;;;;;5080561;28;20028;-47
2021/12/21 02:54:41;;;;;;;31.60;16.67;;;-2.00;99.90;;;;;;5075471;28;20025;-46
2021/12/21 02:57:07;;;;;;;28.33;14.73;;;-1.90;99.90;;;;;;5076393;28;20033;-46
2021/12/21 02:59:33;;;;;;;34.35;15.70;;;-1.80;99.90;;;;;;5088512;28;20036;-45
2021/12/21 03:01:58;;;;;;;34.55;16.20;;;-1.80;99.90;;;;;;5078124;28;20048;-46
2021/12/21 03:04:24;;;;;;;26.77;16.73;;;-1.70;99.90;;;;;;5075999;28;20047;-45
2021/12/21 03:09:56;;;;;;;34.72;17.55;;;-1.70;99.90;;;;;;5052499;28;20135;-46
2021/12/21 03:14:47;;;;;;;34.72;19.83;;;-1.60;99.90;;;;;;5074096;28;20493;-45
2021/12/21 03:17:13;;;;;;;33.72;19.08;;;-1.50;99.90;;;;;;5087772;28;20035;-46
2021/12/21 03:19:39;;;;;;;29.90;17.58;;;-1.60;99.90;;;;;;5084281;28;20029;-47
2021/12/21 03:22:06;;;;;;;36.53;18.10;;;-1.60;99.90;;;;;;5078754;28;20100;-46
2021/12/21 03:24:32;;;;;;;28.90;17.25;;;-1.60;99.90;;;;;;5088769;28;20039;-46
2021/12/21 03:26:57;;;;;;;52.85;19.85;;;-1.70;99.90;;;;;;5076919;28;20158;-47
2021/12/21 03:29:24;;;;;;;35.20;19.52;;;-1.70;99.90;;;;;;5089328;28;20032;-49
2021/12/21 03:31:49;;;;;;;32.25;18.50;;;-1.70;99.90;;;;;;5091469;28;20593;-46
2021/12/21 03:34:15;;;;;;;38.45;21.13;;;-1.70;99.90;;;;;;5081382;28;20028;-46
2021/12/21 03:36:41;;;;;;;30.05;17.27;;;-1.70;99.90;;;;;;5083865;28;20024;-48
2021/12/21 03:39:09;;;;;;;31.45;16.95;;;-1.70;99.90;;;;;;5083531;28;20137;-46
2021/12/21 03:41:44;;;;;;;28.17;17.42;;;-1.70;99.90;;;;;;5091460;28;20506;-46
2021/12/21 03:44:10;;;;;;;38.30;19.73;;;-1.80;99.90;;;;;;5082674;28;20028;-45
2021/12/21 03:46:43;;;;;;;28.40;18.05;;;-1.70;99.90;;;;;;5088933;28;20397;-48
2021/12/21 03:49:34;;;;;;;34.95;19.30;;;-1.70;99.90;;;;;;5083864;28;20031;-46
2021/12/21 03:51:54;;;;;;;34.83;18.63;;;-1.80;99.90;;;;;;5079735;28;20089;-46
2021/12/21 03:54:20;;;;;;;49.28;20.25;;;-1.80;99.90;;;;;;5084537;28;20024;-45
2021/12/21 03:56:49;;;;;;;34.58;18.67;;;-1.80;99.90;;;;;;5088539;28;20047;-45
2021/12/21 03:59:14;;;;;;;29.58;17.63;;;-1.80;99.90;;;;;;5083314;28;20115;-45
2021/12/21 04:01:40;;;;;;;37.88;20.83;;;-1.80;99.90;;;;;;5092609;28;20194;-46
2021/12/21 04:04:06;;;;;;;34.65;20.20;;;-1.70;99.90;;;;;;5086042;28;20024;-45
2021/12/21 04:06:31;;;;;;;33.83;19.20;;;-1.80;99.90;;;;;;5086213;28;20016;-46
2021/12/21 04:08:57;;;;;;;38.63;18.60;;;-1.80;99.90;;;;;;5088150;28;20024;-45
2021/12/21 04:11:22;;;;;;;47.78;21.27;;;-1.70;99.90;;;;;;5084636;28;20020;-47
2021/12/21 04:13:48;;;;;;;33.45;19.27;;;-1.80;99.90;;;;;;5088715;28;20466;-46
2021/12/21 04:16:13;;;;;;;38.00;18.45;;;-1.80;99.90;;;;;;5083491;28;20073;-44
2021/12/21 04:18:40;;;;;;;38.20;20.40;;;-1.80;99.90;;;;;;5084442;28;20031;-45
2021/12/21 04:21:14;;;;;;;32.97;19.05;;;-1.80;99.90;;;;;;5097495;28;20363;-45
2021/12/21 04:23:41;;;;;;;69.13;21.08;;;-1.80;99.90;;;;;;5080811;28;20036;-46
2021/12/21 04:26:08;;;;;;;35.30;18.60;;;-1.80;99.90;;;;;;5081207;28;20385;-45
2021/12/21 04:28:34;;;;;;;68.13;22.90;;;-1.80;99.90;;;;;;5081891;28;20055;-45
2021/12/21 04:30:59;;;;;;;42.60;22.15;;;-1.80;99.90;;;;;;5077303;28;20044;-45
2021/12/21 04:33:25;;;;;;;35.80;19.85;;;-1.80;99.90;;;;;;5070990;28;20470;-48
2021/12/21 04:35:50;;;;;;;30.27;18.90;;;-1.80;99.90;;;;;;5079523;28;20095;-47
2021/12/21 04:38:21;;;;;;;33.30;19.70;;;-1.80;99.90;;;;;;5070993;28;20056;-48
2021/12/21 04:40:51;;;;;;;40.22;20.95;;;-1.80;99.90;;;;;;5078684;28;20032;-45
2021/12/21 04:43:16;;;;;;;35.53;19.23;;;-1.80;99.90;;;;;;5051556;28;20067;-47
2021/12/21 04:45:42;;;;;;;44.60;21.33;;;-1.80;99.90;;;;;;5084252;28;20727;-45
2021/12/21 04:48:07;;;;;;;35.17;20.80;;;-1.70;99.90;;;;;;5071625;28;20033;-46
2021/12/21 04:50:34;;;;;;;33.63;19.88;;;-1.70;99.90;;;;;;5078390;28;20020;-45
2021/12/21 04:52:59;;;;;;;36.85;20.33;;;-1.80;99.90;;;;;;5080186;28;20401;-45
2021/12/21 04:55:25;;;;;;;32.72;19.95;;;-1.90;99.90;;;;;;5090100;28;20013;-45
2021/12/21 04:57:50;;;;;;;42.53;21.10;;;-1.80;99.90;;;;;;5078668;28;20754;-46
2021/12/21 05:00:16;;;;;;;30.73;19.52;;;-1.80;99.90;;;;;;5091199;28;20028;-47
2021/12/21 05:02:42;;;;;;;81.72;23.27;;;-1.80;99.90;;;;;;5082541;28;20025;-47
2021/12/21 05:05:08;;;;;;;36.60;20.80;;;-1.80;99.90;;;;;;5089678;28;20045;-46
2021/12/21 05:07:36;;;;;;;38.97;20.10;;;-1.90;99.90;;;;;;5084591;28;20039;-46
2021/12/21 05:10:04;;;;;;;40.65;22.52;;;-1.90;99.90;;;;;;5072421;28;20363;-47
2021/12/21 05:12:30;;;;;;;33.90;19.50;;;-1.80;99.90;;;;;;5075667;28;20048;-49
2021/12/21 05:14:56;;;;;;;69.10;22.42;;;-1.80;99.90;;;;;;5073604;28;20048;-46
2021/12/21 05:17:23;;;;;;;71.68;24.70;;;-1.80;99.90;;;;;;5081379;28;20456;-46
2021/12/21 05:19:49;;;;;;;33.85;21.00;;;-1.80;99.90;;;;;;5074208;28;20486;-46
2021/12/21 05:22:15;;;;;;;47.58;23.20;;;-1.80;99.90;;;;;;5069882;28;20036;-48
2021/12/21 05:24:42;;;;;;;39.03;21.98;;;-1.80;99.90;;;;;;5078306;28;20025;-48
2021/12/21 05:27:08;;;;;;;52.58;23.00;;;-1.80;99.90;;;;;;5089185;28;20379;-49
2021/12/21 05:29:34;;;;;;;31.95;21.45;;;-1.80;99.90;;;;;;5080792;28;20381;-47
2021/12/21 05:32:00;;;;;;;43.15;21.73;;;-1.80;99.90;;;;;;5080425;28;20020;-47
2021/12/21 05:34:27;;;;;;;38.75;22.25;;;-1.90;99.90;;;;;;5079831;28;20020;-46
2021/12/21 05:36:52;;;;;;;36.58;19.65;;;-2.00;99.90;;;;;;5084341;28;20008;-47
2021/12/21 05:39:22;;;;;;;46.53;22.70;;;-2.00;99.90;;;;;;5075903;28;20028;-49
2021/12/21 05:41:53;;;;;;;37.57;21.73;;;-1.90;99.90;;;;;;5083320;28;20020;-46
2021/12/21 05:44:20;;;;;;;41.50;21.67;;;-2.00;99.90;;;;;;5082009;28;20258;-46
2021/12/21 05:46:47;;;;;;;43.47;23.13;;;-2.00;99.90;;;;;;5081461;28;20036;-46
2021/12/21 05:49:13;;;;;;;42.30;22.23;;;-1.90;99.90;;;;;;5080554;28;20027;-46
2021/12/21 05:51:39;;;;;;;35.67;22.20;;;-1.90;99.90;;;;;;5085298;28;20020;-48
2021/12/21 05:54:05;;;;;;;43.30;20.83;;;-1.90;99.90;;;;;;5079630;28;20071;-47
2021/12/21 05:56:30;;;;;;;37.30;21.10;;;-1.80;99.90;;;;;;5072258;28;20052;-48
2021/12/21 05:58:57;;;;;;;35.80;20.75;;;-1.90;99.90;;;;;;5068360;28;20024;-47
2021/12/21 06:01:23;;;;;;;35.33;20.40;;;-1.90;99.90;;;;;;5070973;28;20477;-47
2021/12/21 06:03:48;;;;;;;42.03;21.70;;;-1.90;99.90;;;;;;5069230;28;20119;-47
2021/12/21 06:06:16;;;;;;;33.92;21.13;;;-1.90;99.90;;;;;;5070985;28;20034;-49
2021/12/21 06:08:44;;;;;;;35.72;20.88;;;-1.90;99.90;;;;;;5069848;28;20021;-47
2021/12/21 06:11:10;;;;;;;35.15;19.92;;;-1.90;99.90;;;;;;5068718;28;20359;-47
2021/12/21 06:14:03;;;;;;;51.50;21.83;;;-1.90;99.90;;;;;;5071745;28;20255;-46
2021/12/21 06:27:22;;;;;;;43.35;23.00;;;-1.90;99.90;;;;;;5070912;28;20110;-47
2021/12/21 06:29:48;;;;;;;40.58;21.48;;;-2.00;99.90;;;;;;5068781;28;20024;-47
2021/12/21 06:32:14;;;;;;;50.03;23.92;;;-1.90;99.90;;;;;;5080535;28;20020;-47
2021/12/21 06:34:40;;;;;;;38.58;22.52;;;-1.90;99.90;;;;;;5087057;28;20028;-48
2021/12/21 06:37:06;;;;;;;37.28;21.63;;;-1.90;99.90;;;;;;5075256;28;20402;-48
2021/12/21 06:39:33;;;;;;;41.00;24.48;;;-1.90;99.90;;;;;;5067504;28;20024;-47
2021/12/21 06:42:01;;;;;;;42.85;23.70;;;-1.90;99.90;;;;;;5073406;28;20024;-47
2021/12/21 06:44:28;;;;;;;42.92;24.10;;;-1.90;99.90;;;;;;5089371;28;20024;-47
2021/12/21 06:52:22;;;;;;;41.50;23.08;;;-1.90;99.90;;;;;;5082243;28;20074;-47
2021/12/21 06:54:47;;;;;;;46.60;24.52;;;-1.80;99.90;;;;;;5092259;28;20032;-46
2021/12/21 06:57:13;;;;;;;41.15;22.40;;;-1.90;99.90;;;;;;5087990;28;20067;-46
2021/12/21 06:59:39;;;;;;;45.28;24.90;;;-1.90;99.90;;;;;;5075610;28;20036;-46
2021/12/21 07:02:05;;;;;;;45.38;24.33;;;-1.80;99.90;;;;;;5076289;28;20101;-46
2021/12/21 07:04:30;;;;;;;47.67;24.25;;;-1.80;99.90;;;;;;5075538;28;20030;-46
2021/12/21 07:06:57;;;;;;;41.47;23.45;;;-1.70;99.90;;;;;;5078925;28;20177;-46
2021/12/21 07:09:36;;;;;;;37.65;22.42;;;-1.70;99.90;;;;;;5080254;28;20103;-47
2021/12/21 07:19:59;;;;;;;46.30;23.98;;;-1.50;99.90;;;;;;5081524;28;20097;-46
2021/12/21 07:22:25;;;;;;;40.85;23.13;;;-1.60;99.90;;;;;;5077506;28;20073;-46
2021/12/21 07:24:50;;;;;;;40.92;22.20;;;-1.50;99.90;;;;;;5078802;28;20013;-47
2021/12/21 07:27:16;;;;;;;42.92;23.63;;;-1.40;99.90;;;;;;5077598;28;20021;-46
2021/12/21 07:29:41;;;;;;;41.80;23.00;;;-1.40;99.90;;;;;;5084449;28;20069;-49
2021/12/21 07:32:07;;;;;;;43.38;22.98;;;-1.40;99.90;;;;;;5083926;28;20028;-49
2021/12/21 07:34:32;;;;;;;47.47;22.80;;;-1.30;99.90;;;;;;5081969;28;20024;-48
2021/12/21 07:36:58;;;;;;;49.38;24.67;;;-1.30;99.90;;;;;;5086275;28;20170;-47
2021/12/21 07:39:24;;;;;;;46.10;23.77;;;-1.20;99.90;;;;;;5077776;28;20040;-47
2021/12/21 07:41:49;;;;;;;43.08;22.48;;;-1.20;99.90;;;;;;5088665;28;20028;-50
2021/12/21 07:44:15;;;;;;;42.53;21.65;;;-1.20;99.90;;;;;;5081529;28;20107;-47
2021/12/21 07:46:42;;;;;;;40.65;21.90;;;-1.10;99.90;;;;;;5079752;28;20077;-46
2021/12/21 07:49:08;;;;;;;64.53;24.42;;;-1.10;99.90;;;;;;5088239;28;20273;-48
2021/12/21 07:51:34;;;;;;;50.88;24.17;;;-1.00;99.90;;;;;;5085768;28;20012;-48
2021/12/21 07:53:59;;;;;;;46.63;23.05;;;-1.00;99.90;;;;;;5079732;28;20022;-48
2021/12/21 07:56:25;;;;;;;52.60;22.50;;;-1.00;99.90;;;;;;5088235;28;20100;-48
2021/12/21 07:58:51;;;;;;;51.95;24.05;;;-0.90;99.90;;;;;;5081756;28;20031;-48
2021/12/21 08:01:17;;;;;;;48.17;23.42;;;-0.90;99.90;;;;;;5076119;28;20098;-48
2021/12/21 08:03:43;;;;;;;45.75;23.70;;;-0.90;99.90;;;;;;5066786;28;20035;-48
2021/12/21 08:06:12;;;;;;;46.92;22.83;;;-0.80;99.90;;;;;;5074783;28;20033;-48
2021/12/21 08:08:41;;;;;;;45.47;21.98;;;-0.80;99.90;;;;;;5066438;28;20056;-49
2021/12/21 08:11:13;;;;;;;48.42;22.98;;;-0.80;99.90;;;;;;5076389;28;20572;-48
2021/12/21 08:13:43;;;;;;;48.30;24.33;;;-0.70;99.90;;;;;;5086404;28;20274;-48
2021/12/21 08:16:09;;;;;;;54.53;25.48;;;-0.70;99.90;;;;;;5079588;28;20063;-49
2021/12/21 08:18:35;;;;;;;51.95;27.20;;;-0.60;99.90;;;;;;5090058;28;20036;-48
2021/12/21 08:21:01;;;;;;;47.40;23.67;;;-0.60;99.90;;;;;;5083983;28;20031;-48
2021/12/21 08:23:26;;;;;;;50.67;23.48;;;-0.50;99.90;;;;;;5083625;28;20363;-48
2021/12/21 08:25:54;;;;;;;41.40;20.52;;;-0.50;99.90;;;;;;5092079;28;20027;-48
2021/12/21 08:28:20;;;;;;;40.53;21.45;;;-0.50;99.90;;;;;;5080772;28;20020;-48
2021/12/21 08:30:45;;;;;;;40.08;21.88;;;-0.50;99.90;;;;;;5087657;28;20028;-48
2021/12/21 08:33:11;;;;;;;41.05;21.35;;;-0.50;99.90;;;;;;5090759;28;20032;-48
2021/12/21 08:35:37;;;;;;;42.20;22.27;;;-0.40;99.90;;;;;;5078264;28;20029;-50
2021/12/21 08:38:07;;;;;;;45.72;23.77;;;-0.40;99.90;;;;;;5088834;28;20443;-51
2021/12/21 08:40:39;;;;;;;;;;;-0.40;99.90;;;;;;5092071;28;20105;-50
2021/12/21 08:43:13;;;;;;;43.75;20.30;;;-0.40;99.90;;;;;;5091693;28;19911;-47
2021/12/21 08:45:41;;;;;;;40.75;21.70;;;-0.40;99.90;;;;;;5077794;28;20021;-48
2021/12/21 08:48:07;;;;;;;42.33;21.08;;;-0.30;99.90;;;;;;5080152;28;20032;-49
2021/12/21 08:50:34;;;;;;;46.00;22.73;;;-0.20;99.90;;;;;;5085612;28;20033;-48
2021/12/21 08:53:00;;;;;;;44.45;23.58;;;-0.10;99.90;;;;;;5073095;28;20103;-48
2021/12/21 08:55:26;;;;;;;42.47;21.25;;;-0.20;99.90;;;;;;5085213;28;20116;-47
2021/12/21 08:57:52;;;;;;;40.28;21.55;;;-0.10;99.90;;;;;;5082345;28;20016;-47
2021/12/21 09:00:18;;;;;;;46.10;23.08;;;-0.10;99.90;;;;;;5082002;28;20020;-47
2021/12/21 09:02:44;;;;;;;43.83;23.65;;;-0.10;99.90;;;;;;5106176;28;20046;-47
2021/12/21 09:05:19;;;;;;;40.88;20.30;;;0.00;99.90;;;;;;5079691;28;20679;-47
2021/12/21 09:07:46;;;;;;;37.47;20.45;;;0.10;99.90;;;;;;5079641;28;20031;-49
2021/12/21 09:10:14;;;;;;;40.17;21.88;;;0.20;99.90;;;;;;5081898;28;20028;-49
2021/12/21 09:12:40;;;;;;;41.60;21.10;;;0.20;99.90;;;;;;5077706;28;20119;-47
2021/12/21 09:15:07;;;;;;;49.08;22.63;;;0.30;99.90;;;;;;5081956;28;20325;-47
2021/12/21 09:17:34;;;;;;;56.40;21.85;;;0.40;99.90;;;;;;5069473;28;20774;-47
2021/12/21 09:20:00;;;;;;;45.45;20.65;;;0.40;99.90;;;;;;5079621;28;20017;-47
2021/12/21 09:22:26;;;;;;;42.45;20.45;;;0.50;99.90;;;;;;5079747;28;20093;-49
2021/12/21 09:24:52;;;;;;;44.00;20.35;;;0.40;99.90;;;;;;5073418;28;20021;-48
2021/12/21 09:27:18;;;;;;;39.25;19.08;;;0.40;99.90;;;;;;5071036;28;20289;-49
2021/12/21 09:29:45;;;;;;;33.42;19.77;;;0.50;99.90;;;;;;5081497;28;20401;-48
2021/12/21 09:32:13;;;;;;;42.17;19.85;;;0.50;99.90;;;;;;5083088;28;20046;-48
2021/12/21 09:34:40;;;;;;;37.17;20.10;;;0.50;99.90;;;;;;5083225;28;20020;-48
2021/12/21 09:37:06;;;;;;;49.30;21.92;;;0.60;99.90;;;;;;5078614;28;20471;-48
2021/12/21 09:39:31;;;;;;;45.65;23.15;;;0.50;99.90;;;;;;5078865;28;20016;-48
2021/12/21 09:41:57;;;;;;;48.83;23.38;;;0.50;99.90;;;;;;5083157;28;20040;-48
2021/12/21 09:44:23;;;;;;;44.60;22.05;;;0.50;99.90;;;;;;5080303;28;20024;-50
2021/12/21 09:46:49;;;;;;;46.58;21.70;;;0.50;99.90;;;;;;5078076;28;20046;-51
2021/12/21 09:49:15;;;;;;;50.22;23.13;;;0.50;99.90;;;;;;5082801;28;20052;-48
2021/12/21 09:51:42;;;;;;;46.22;22.00;;;0.50;99.90;;;;;;5081285;28;20040;-49
2021/12/21 09:54:08;;;;;;;43.40;21.27;;;0.60;99.90;;;;;;5086896;28;20035;-48
2021/12/21 09:56:34;;;;;;;39.47;21.58;;;0.60;99.90;;;;;;5077695;28;20526;-49
2021/12/21 09:59:01;;;;;;;53.95;24.00;;;0.70;99.90;;;;;;5069324;28;20033;-50
2021/12/21 10:01:27;;;;;;;44.10;21.85;;;0.60;99.90;;;;;;5069755;28;20024;-50
2021/12/21 10:03:53;;;;;;;45.35;21.83;;;0.70;99.90;;;;;;5068086;28;20132;-51
2021/12/21 10:06:18;;;;;;;43.97;22.42;;;0.70;99.90;;;;;;5073713;28;20317;-48
2021/12/21 10:08:44;;;;;;;40.60;21.27;;;0.70;99.90;;;;;;5068122;28;20081;-49
2021/12/21 10:11:21;;;;;;;40.28;20.13;;;0.80;99.90;;;;;;5069393;28;20024;-51
2021/12/21 10:13:48;;;;;;;38.47;20.88;;;0.90;99.90;;;;;;5068802;28;20317;-50
2021/12/21 10:16:21;;;;;;;43.85;21.40;;;1.00;99.90;;;;;;5069601;28;20030;-48
2021/12/21 10:18:49;;;;;;;41.67;20.42;;;1.10;99.90;;;;;;5068822;28;20406;-48
2021/12/21 10:21:16;;;;;;;44.67;22.17;;;1.10;99.90;;;;;;5074208;28;20582;-48
2021/12/21 10:23:47;;;;;;;45.47;21.90;;;1.10;99.90;;;;;;5068570;28;20059;-47
2021/12/21 10:26:19;;;;;;;43.67;21.23;;;1.20;99.90;;;;;;5071183;28;20048;-47
2021/12/21 10:28:51;;;;;;;49.05;22.67;;;1.20;99.90;;;;;;5068313;28;20056;-47
2021/12/21 10:31:36;;;;;;;44.90;23.60;;;1.20;99.90;;;;;;5069113;28;20023;-48
2021/12/21 10:34:04;;;;;;;47.10;24.00;;;1.10;99.90;;;;;;5066244;28;20404;-47
2021/12/21 10:36:30;;;;;;;45.42;22.65;;;1.10;99.90;;;;;;5070737;28;20078;-47
2021/12/21 10:38:58;;;;;;;47.58;24.83;;;1.10;99.90;;;;;;5067925;28;20040;-47
2021/12/21 10:41:40;;;;;;;51.85;24.25;;;1.10;99.90;;;;;;5072800;28;20048;-48
2021/12/21 10:44:14;;;;;;;48.53;24.42;;;1.10;99.90;;;;;;5080988;28;20266;-47
2021/12/21 10:46:47;;;;;;;45.13;23.25;;;1.20;99.90;;;;;;5084209;28;20048;-47
2021/12/21 10:49:16;;;;;;;48.97;25.38;;;1.10;99.90;;;;;;5071699;28;20031;-47
2021/12/21 10:51:52;;;;;;;44.40;24.35;;;1.20;99.90;;;;;;5068924;28;20433;-47
2021/12/21 10:54:41;;;;;;;59.22;27.77;;;1.20;99.90;;;;;;5069605;28;20048;-47
2021/12/21 10:57:16;;;;;;;54.50;26.88;;;1.20;99.90;;;;;;5071245;28;20048;-48
2021/12/21 10:59:46;;;;;;;54.42;28.23;;;1.20;99.90;;;;;;5067058;28;20283;-47
2021/12/21 11:02:22;;;;;;;57.90;26.52;;;1.20;99.90;;;;;;5070051;28;20115;-47
2021/12/21 11:04:53;;;;;;;56.42;27.88;;;1.20;99.90;;;;;;5068155;28;20059;-48
2021/12/21 11:07:38;;;;;;;59.47;28.80;;;1.30;99.90;;;;;;5067912;28;20042;-48
2021/12/21 11:10:12;;;;;;;57.85;27.90;;;1.30;99.90;;;;;;5068450;28;20402;-47
2021/12/21 11:12:46;;;;;;;56.47;27.67;;;1.30;99.90;;;;;;5070742;28;21115;-48
2021/12/21 11:15:14;;;;;;;57.92;27.92;;;1.30;99.90;;;;;;5066737;28;20025;-48
2021/12/21 11:17:41;;;;;;;62.10;30.45;;;1.30;99.90;;;;;;5068585;28;20020;-48
2021/12/21 11:20:08;;;;;;;65.25;29.73;;;1.20;99.90;;;;;;5070027;28;20055;-47
2021/12/21 11:22:37;;;;;;;66.72;30.65;;;1.30;99.90;;;;;;5068191;28;20105;-48
2021/12/21 11:25:04;;;;;;;55.95;27.98;;;1.30;99.90;;;;;;5070408;28;20020;-48
2021/12/21 11:27:31;;;;;;;65.55;30.88;;;1.40;99.90;;;;;;5066504;28;20017;-48
2021/12/21 11:30:01;;;;;;;55.13;28.65;;;1.40;99.90;;;;;;5070535;28;20029;-48
2021/12/21 11:32:30;;;;;;;51.25;27.38;;;1.40;99.90;;;;;;5064985;28;20025;-48
2021/12/21 11:37:42;;;;;;;65.00;29.98;;;1.40;99.90;;;;;;5079843;28;20089;-49
2021/12/21 11:40:11;;;;;;;69.30;31.38;;;1.40;99.90;;;;;;5085108;28;20025;-47
2021/12/21 11:42:52;;;;;;;55.78;27.90;;;1.40;99.90;;;;;;5078877;28;20024;-47
2021/12/21 11:45:39;;;;;;;63.75;31.25;;;1.40;99.90;;;;;;5088603;28;20017;-48
2021/12/21 11:48:26;;;;;;;59.30;28.52;;;1.40;99.90;;;;;;5073212;28;20037;-49
2021/12/21 11:50:51;;;;;;;57.28;27.80;;;1.40;99.90;;;;;;5081220;28;20603;-47
2021/12/21 11:53:19;;;;;;;59.08;29.52;;;1.40;99.90;;;;;;5084557;28;20099;-49
2021/12/21 11:55:48;;;;;;;66.25;30.60;;;1.40;99.90;;;;;;5085282;28;20020;-49
2021/12/21 11:58:14;;;;;;;64.38;30.67;;;1.30;99.90;;;;;;5083458;28;20103;-48
2021/12/21 12:00:48;;;;;;;61.78;29.73;;;1.40;99.90;;;;;;5092405;28;20433;-48
2021/12/21 12:03:19;;;;;;;60.83;30.75;;;1.40;99.90;;;;;;5083340;28;20599;-47
2021/12/21 12:05:58;;;;;;;68.13;31.15;;;1.40;99.90;;;;;;5087759;28;20378;-53
2021/12/21 12:08:26;;;;;;;60.45;29.38;;;1.50;99.90;;;;;;5076590;28;20028;-47
2021/12/21 12:11:00;;;;;;;66.65;29.77;;;1.50;99.90;;;;;;5083500;28;20465;-47
2021/12/21 12:13:40;;;;;;;63.47;29.27;;;1.50;99.90;;;;;;5092462;28;20028;-47
2021/12/21 12:16:10;;;;;;;62.10;29.23;;;1.40;99.90;;;;;;5082547;28;20061;-48
2021/12/21 12:18:48;;;;;;;55.55;28.70;;;1.50;99.90;;;;;;5085676;28;20089;-47
2021/12/21 12:21:15;;;;;;;72.18;28.83;;;1.40;99.90;;;;;;5089290;28;20520;-49
2021/12/21 12:23:52;;;;;;;61.03;28.05;;;1.50;99.90;;;;;;5085549;28;20474;-48
2021/12/21 12:26:37;;;;;;;61.85;31.00;;;1.50;99.90;;;;;;5075548;28;20028;-47
2021/12/21 12:29:20;;;;;;;69.47;28.67;;;1.50;99.90;;;;;;5087150;28;20403;-47
2021/12/21 12:32:11;;;;;;;64.88;30.30;;;1.40;99.90;;;;;;5074854;28;20021;-48
2021/12/21 12:34:39;;;;;;;71.35;30.45;;;1.50;99.90;;;;;;5070223;28;20008;-47
2021/12/21 12:37:18;;;;;;;59.33;27.98;;;1.40;99.90;;;;;;5080896;28;20047;-48
2021/12/21 12:39:46;;;;;;;64.40;28.13;;;1.50;99.90;;;;;;5086793;28;20032;-47
2021/12/21 12:42:33;;;;;;;67.78;27.73;;;1.50;99.90;;;;;;5082011;28;20056;-50
2021/12/21 12:45:20;;;;;;;69.80;28.77;;;1.40;99.90;;;;;;5088404;28;20089;-47
2021/12/21 12:47:54;;;;;;;63.50;26.77;;;1.40;99.90;;;;;;5082869;28;20081;-47
2021/12/21 12:50:23;;;;;;;52.05;23.83;;;1.50;99.90;;;;;;5098126;28;20020;-48
2021/12/21 12:52:56;;;;;;;53.03;24.88;;;1.50;99.90;;;;;;5079199;28;20083;-48
2021/12/21 12:55:23;;;;;;;41.35;20.10;;;1.50;99.90;;;;;;5071661;28;20437;-47
2021/12/21 12:57:55;;;;;;;41.30;17.08;;;1.60;99.90;;;;;;5068351;28;20524;-47
2021/12/21 13:00:31;;;;;;;38.22;15.68;;;1.60;99.90;;;;;;5070354;28;20063;-47
2021/12/21 13:03:10;;;;;;;35.80;17.13;;;1.70;99.90;;;;;;5076569;28;20506;-48
2021/12/21 13:05:52;;;;;;;31.05;16.42;;;1.70;99.90;;;;;;5068995;28;20036;-47
2021/12/21 13:08:22;;;;;;;29.23;14.20;;;1.80;99.90;;;;;;5072506;28;20111;-49
2021/12/21 13:10:51;;;;;;;28.25;14.95;;;1.90;99.90;;;;;;5082049;28;20024;-47
2021/12/21 13:13:18;;;;;;;31.20;14.88;;;2.00;99.90;;;;;;5085687;28;20040;-48
2021/12/21 13:15:49;;;;;;;31.60;13.98;;;2.00;99.90;;;;;;5082188;28;20077;-48
2021/12/21 13:18:17;;;;;;;24.90;12.48;;;2.00;99.90;;;;;;5073776;28;20069;-48
2021/12/21 13:20:44;;;;;;;22.42;12.13;;;1.90;99.90;;;;;;5074872;28;20036;-47
2021/12/21 13:23:13;;;;;;;27.80;13.48;;;1.80;99.90;;;;;;5071396;28;20036;-48
2021/12/21 13:25:39;;;;;;;25.75;12.43;;;1.60;99.90;;;;;;5076097;28;20081;-48
2021/12/21 13:28:12;;;;;;;30.10;13.95;;;1.60;99.90;;;;;;5081441;28;20505;-48